createdAt,value
2018-07-17T00:00:15.524Z,7.03
2018-07-17T00:02:44.656Z,7.27
2018-07-17T00:05:13.937Z,8.47
2018-07-17T00:07:43.766Z,7.33
2018-07-17T00:10:12.943Z,7.80
2018-07-17T00:12:42.241Z,7.87
2018-07-17T00:15:11.271Z,8.47
2018-07-17T00:17:40.347Z,8.17
2018-07-17T00:20:09.516Z,7.83
2018-07-17T00:22:38.775Z,8.00
2018-07-17T00:25:07.973Z,7.97
2018-07-17T00:27:37.258Z,8.23
2018-07-17T00:30:06.423Z,9.07
2018-07-17T00:32:35.553Z,8.40
2018-07-17T00:35:04.715Z,9.13
2018-07-17T00:37:33.754Z,9.10
2018-07-17T00:40:02.791Z,8.70
2018-07-17T00:42:32.048Z,8.23
2018-07-17T00:45:01.232Z,8.27
2018-07-17T00:47:30.343Z,8.60
2018-07-17T00:50:00.343Z,8.00
2018-07-17T00:52:29.763Z,8.60
2018-07-17T00:54:59.461Z,8.50
2018-07-17T00:57:28.694Z,8.20
2018-07-17T00:59:58.156Z,8.53
2018-07-17T01:02:32.613Z,8.10
2018-07-17T01:05:07.141Z,8.60
2018-07-17T01:07:41.591Z,8.77
2018-07-17T01:10:15.872Z,8.83
2018-07-17T01:12:44.235Z,8.20
2018-07-17T01:15:32.101Z,9.00
2018-07-17T01:18:01.224Z,8.20
2018-07-17T01:20:30.672Z,8.47
2018-07-17T01:23:00.588Z,8.87
2018-07-17T01:25:29.751Z,9.30
2018-07-17T01:27:58.879Z,8.57
2018-07-17T01:30:28.653Z,10.20
2018-07-17T01:32:57.823Z,9.60
2018-07-17T01:35:26.983Z,10.63
2018-07-17T01:37:56.076Z,10.53
2018-07-17T01:40:26.233Z,11.07
2018-07-17T01:42:55.505Z,10.10
2018-07-17T01:45:25.202Z,10.57
2018-07-17T01:47:54.645Z,10.27
2018-07-17T01:50:23.980Z,9.80
2018-07-17T01:52:53.104Z,10.60
2018-07-17T01:55:22.400Z,11.10
2018-07-17T01:57:51.506Z,14.13
2018-07-17T02:00:21.137Z,14.87
2018-07-17T02:02:50.519Z,14.53
2018-07-17T02:05:19.822Z,13.13
2018-07-17T02:07:49.431Z,12.03
2018-07-17T02:10:19.561Z,12.47
2018-07-17T02:12:48.797Z,12.63
2018-07-17T02:15:17.955Z,13.13
2018-07-17T02:17:47.338Z,13.93
2018-07-17T02:20:16.637Z,12.00
2018-07-17T02:22:45.836Z,11.83
2018-07-17T02:25:15.011Z,12.47
2018-07-17T02:27:44.311Z,13.00
2018-07-17T02:30:13.428Z,12.40
2018-07-17T02:32:42.563Z,12.40
2018-07-17T02:35:12.236Z,13.27
2018-07-17T02:37:41.332Z,13.73
2018-07-17T02:40:10.839Z,12.90
2018-07-17T02:42:40.151Z,13.80
2018-07-17T02:45:09.360Z,14.00
2018-07-17T02:47:38.640Z,13.73
2018-07-17T02:50:07.794Z,13.60
2018-07-17T02:52:38.085Z,14.43
2018-07-17T02:55:07.590Z,13.93
2018-07-17T02:57:36.774Z,13.57
2018-07-17T03:00:06.024Z,13.67
2018-07-17T03:02:35.808Z,14.43
2018-07-17T03:05:05.421Z,13.80
2018-07-17T03:07:34.616Z,13.53
2018-07-17T03:10:04.457Z,12.20
2018-07-17T03:12:33.805Z,12.97
2018-07-17T03:15:03.000Z,12.33
2018-07-17T03:17:32.417Z,11.90
2018-07-17T03:20:01.675Z,11.60
2018-07-17T03:22:31.026Z,10.67
2018-07-17T03:25:00.199Z,10.50
2018-07-17T03:27:29.564Z,10.50
2018-07-17T03:29:58.690Z,10.30
2018-07-17T03:32:28.008Z,9.80
2018-07-17T03:34:57.180Z,10.87
2018-07-17T03:37:26.378Z,9.73
2018-07-17T03:39:55.563Z,9.17
2018-07-17T03:42:24.716Z,9.30
2018-07-17T03:44:53.884Z,8.73
2018-07-17T03:47:22.992Z,8.70
2018-07-17T03:49:52.155Z,8.90
2018-07-17T03:52:21.459Z,8.77
2018-07-17T03:54:50.720Z,8.13
2018-07-17T03:57:19.782Z,8.00
2018-07-17T03:59:48.976Z,9.30
2018-07-17T04:02:18.200Z,7.17
2018-07-17T04:04:47.850Z,7.03
2018-07-17T04:07:21.845Z,6.80
2018-07-17T04:09:51.087Z,6.83
2018-07-17T04:12:20.412Z,6.90
2018-07-17T04:14:51.888Z,6.77
2018-07-17T04:17:22.231Z,6.13
2018-07-17T04:19:51.536Z,5.90
2018-07-17T04:22:20.738Z,6.03
2018-07-17T04:24:50.046Z,6.17
2018-07-17T04:27:19.282Z,5.93
2018-07-17T04:29:49.283Z,6.30
2018-07-17T04:32:18.429Z,5.67
2018-07-17T04:34:47.547Z,5.43
2018-07-17T04:37:16.877Z,5.63
2018-07-17T04:39:46.336Z,5.43
2018-07-17T04:42:15.505Z,5.73
2018-07-17T04:44:45.172Z,5.50
2018-07-17T04:47:14.270Z,5.40
2018-07-17T04:49:43.723Z,5.63
2018-07-17T04:52:12.997Z,5.27
2018-07-17T04:54:42.284Z,4.80
2018-07-17T04:57:11.603Z,4.33
2018-07-17T04:59:40.733Z,4.20
2018-07-17T05:02:10.094Z,4.27
2018-07-17T05:04:39.228Z,4.53
2018-07-17T05:07:08.541Z,4.30
2018-07-17T05:09:37.987Z,4.17
2018-07-17T05:12:07.198Z,4.30
2018-07-17T05:14:36.470Z,4.23
2018-07-17T05:17:06.021Z,5.47
2018-07-17T05:19:35.308Z,4.03
2018-07-17T05:22:04.402Z,5.00
2018-07-17T05:24:35.031Z,3.97
2018-07-17T05:27:04.220Z,4.22
2018-07-17T05:29:33.472Z,4.27
2018-07-17T05:32:02.614Z,4.23
2018-07-17T05:34:31.842Z,4.30
2018-07-17T05:37:01.030Z,4.30
2018-07-17T05:39:30.335Z,3.63
2018-07-17T05:42:00.025Z,4.43
2018-07-17T05:44:29.456Z,3.70
2018-07-17T05:46:58.665Z,3.73
2018-07-17T05:49:27.812Z,4.10
2018-07-17T05:51:57.071Z,3.83
2018-07-17T05:54:26.322Z,7.00
2018-07-17T05:56:55.542Z,5.10
2018-07-17T05:59:24.807Z,3.60
2018-07-17T06:01:54.350Z,4.40
2018-07-17T06:04:23.520Z,3.97
2018-07-17T06:06:52.699Z,4.67
2018-07-17T06:09:21.919Z,5.10
2018-07-17T06:11:51.131Z,5.17
2018-07-17T06:14:20.302Z,4.77
2018-07-17T06:16:49.353Z,4.73
2018-07-17T06:19:18.488Z,4.57
2018-07-17T06:21:47.713Z,5.53
2018-07-17T06:24:17.506Z,4.67
2018-07-17T06:26:47.429Z,5.70
2018-07-17T06:29:17.346Z,5.27
2018-07-17T06:31:46.677Z,4.90
2018-07-17T06:34:15.911Z,5.30
2018-07-17T06:36:45.020Z,6.47
2018-07-17T06:39:14.095Z,6.87
2018-07-17T06:41:43.242Z,6.40
2018-07-17T06:44:13.128Z,5.73
2018-07-17T06:46:42.300Z,6.07
2018-07-17T06:49:11.655Z,8.07
2018-07-17T06:51:40.960Z,7.37
2018-07-17T06:54:10.844Z,7.93
2018-07-17T06:56:39.865Z,7.90
2018-07-17T06:59:09.200Z,7.17
2018-07-17T07:01:39.256Z,7.40
2018-07-17T07:04:08.321Z,8.40
2018-07-17T07:06:37.672Z,9.03
2018-07-17T07:09:08.319Z,8.13
2018-07-17T07:11:37.525Z,8.97
2018-07-17T07:14:07.129Z,10.40
2018-07-17T07:16:36.191Z,7.53
2018-07-17T07:19:06.122Z,8.03
2018-07-17T07:21:35.591Z,7.90
2018-07-17T07:24:04.820Z,7.80
2018-07-17T07:26:34.108Z,7.17
2018-07-17T07:29:03.557Z,8.23
2018-07-17T07:31:32.603Z,9.00
2018-07-17T07:34:02.064Z,8.63
2018-07-17T07:36:31.423Z,8.67
2018-07-17T07:39:00.537Z,8.00
2018-07-17T07:41:29.767Z,8.70
2018-07-17T07:43:59.033Z,8.77
2018-07-17T07:46:28.383Z,8.67
2018-07-17T07:48:57.524Z,10.50
2018-07-17T07:51:26.719Z,9.67
2018-07-17T07:53:55.880Z,9.73
2018-07-17T07:56:25.248Z,11.73
2018-07-17T07:58:54.723Z,10.17
2018-07-17T08:01:23.978Z,10.60
2018-07-17T08:03:53.098Z,10.40
2018-07-17T08:06:22.107Z,9.97
2018-07-17T08:08:51.176Z,9.87
2018-07-17T08:11:20.436Z,9.30
2018-07-17T08:13:49.585Z,9.90
2018-07-17T08:16:18.875Z,11.10
2018-07-17T08:18:48.091Z,9.53
2018-07-17T08:21:17.416Z,9.87
2018-07-17T08:23:46.596Z,11.27
2018-07-17T08:26:15.796Z,9.73
2018-07-17T08:28:45.012Z,10.57
2018-07-17T08:31:14.182Z,9.33
2018-07-17T08:33:43.406Z,12.40
2018-07-17T08:36:13.081Z,8.50
2018-07-17T08:38:42.926Z,8.47
2018-07-17T08:41:12.536Z,10.07
2018-07-17T08:43:42.167Z,9.17
2018-07-17T08:46:11.234Z,10.07
2018-07-17T08:48:40.441Z,9.37
2018-07-17T08:51:09.485Z,9.90
2018-07-17T08:53:38.558Z,10.80
2018-07-17T08:56:07.679Z,11.93
2018-07-17T08:58:36.727Z,11.03
2018-07-17T09:01:05.992Z,11.20
2018-07-17T09:03:35.309Z,13.23
2018-07-17T09:06:04.597Z,13.30
2018-07-17T09:08:33.729Z,13.30
2018-07-17T09:11:02.913Z,13.37
2018-07-17T09:13:34.881Z,14.23
2018-07-17T09:16:04.287Z,15.33
2018-07-17T09:18:34.297Z,16.43
2018-07-17T09:21:03.518Z,16.10
2018-07-17T09:23:32.791Z,13.93
2018-07-17T09:26:02.089Z,15.03
2018-07-17T09:28:31.245Z,13.83
2018-07-17T09:31:01.819Z,15.70
2018-07-17T09:33:32.557Z,13.40
2018-07-17T09:36:01.835Z,13.03
2018-07-17T09:38:31.110Z,14.43
2018-07-17T09:41:00.164Z,13.27
2018-07-17T09:43:29.389Z,12.90
2018-07-17T09:45:58.757Z,13.93
2018-07-17T09:48:28.058Z,13.30
2018-07-17T09:50:57.265Z,12.77
2018-07-17T09:53:26.337Z,11.03
2018-07-17T09:55:55.489Z,13.90
2018-07-17T09:58:24.737Z,13.57
2018-07-17T10:00:59.155Z,13.50
2018-07-17T10:03:31.731Z,12.87
2018-07-17T10:06:00.787Z,10.47
2018-07-17T10:08:29.882Z,11.47
2018-07-17T10:10:59.043Z,11.50
2018-07-17T10:13:28.297Z,12.80
2018-07-17T10:15:57.610Z,12.20
2018-07-17T10:18:27.099Z,12.17
2018-07-17T10:20:56.321Z,11.17
2018-07-17T10:23:25.619Z,10.07
2018-07-17T10:25:55.155Z,11.57
2018-07-17T10:28:24.294Z,9.60
2018-07-17T10:30:53.504Z,10.30
2018-07-17T10:33:22.451Z,8.83
2018-07-17T10:35:51.959Z,9.73
2018-07-17T10:38:21.038Z,10.30
2018-07-17T10:40:50.220Z,8.07
2018-07-17T10:43:19.279Z,8.33
2018-07-17T10:45:49.016Z,9.97
2018-07-17T10:48:18.199Z,9.73
2018-07-17T10:50:47.338Z,9.00
2018-07-17T10:53:16.486Z,7.50
2018-07-17T10:55:45.935Z,8.90
2018-07-17T10:58:15.186Z,6.57
2018-07-17T11:00:44.418Z,5.53
2018-07-17T11:03:13.715Z,6.20
2018-07-17T11:05:43.192Z,6.03
2018-07-17T11:08:12.580Z,7.90
2018-07-17T11:10:41.709Z,5.23
2018-07-17T11:13:10.931Z,5.67
2018-07-17T11:15:40.143Z,5.23
2018-07-17T11:18:09.317Z,5.60
2018-07-17T11:20:38.955Z,5.90
2018-07-17T11:23:08.144Z,6.07
2018-07-17T11:25:37.736Z,5.20
2018-07-17T11:28:07.016Z,5.80
2018-07-17T11:30:36.210Z,5.57
2018-07-17T11:33:05.443Z,4.58
2018-07-17T11:35:35.442Z,5.20
2018-07-17T11:38:04.650Z,5.43
2018-07-17T11:40:33.395Z,5.10
2018-07-17T11:43:02.528Z,6.23
2018-07-17T11:45:32.273Z,5.93
2018-07-17T11:48:01.410Z,7.30
2018-07-17T11:50:30.834Z,5.28
2018-07-17T11:53:00.057Z,6.53
2018-07-17T11:55:29.168Z,3.37
2018-07-17T11:57:58.248Z,3.90
2018-07-17T12:00:27.506Z,3.90
2018-07-17T12:02:57.025Z,6.77
2018-07-17T12:05:26.351Z,6.58
2018-07-17T12:07:55.553Z,5.40
2018-07-17T12:10:24.563Z,7.77
2018-07-17T12:12:53.852Z,4.63
2018-07-17T12:15:23.842Z,3.80
2018-07-17T12:17:52.989Z,4.00
2018-07-17T12:20:23.686Z,6.07
2018-07-17T12:22:52.948Z,7.12
2018-07-17T12:25:22.078Z,5.15
2018-07-17T12:27:51.228Z,5.67
2018-07-17T12:30:20.488Z,5.28
2018-07-17T12:32:49.761Z,3.53
2018-07-17T12:35:18.964Z,3.00
2018-07-17T12:37:49.006Z,5.12
2018-07-17T12:40:18.126Z,4.30
2018-07-17T12:42:47.469Z,2.40
2018-07-17T12:45:16.664Z,5.30
2018-07-17T12:47:46.070Z,4.97
2018-07-17T12:50:15.540Z,5.85
2018-07-17T12:52:44.669Z,4.93
2018-07-17T12:55:14.005Z,2.63
2018-07-17T12:57:42.985Z,4.58
2018-07-17T13:00:12.122Z,2.93
2018-07-17T13:02:41.376Z,5.10
2018-07-17T13:05:10.467Z,5.35
2018-07-17T13:07:39.441Z,7.50
2018-07-17T13:10:08.244Z,3.42
2018-07-17T13:12:37.329Z,3.15
2018-07-17T13:15:07.133Z,4.35
2018-07-17T13:17:36.396Z,4.28
2018-07-17T13:20:05.734Z,4.37
2018-07-17T13:22:34.833Z,5.58
2018-07-17T13:25:04.971Z,6.17
2018-07-17T13:27:34.226Z,3.95
2018-07-17T13:30:04.076Z,4.10
2018-07-17T13:32:33.236Z,7.62
2018-07-17T13:35:02.509Z,4.37
2018-07-17T13:37:32.009Z,4.00
2018-07-17T13:40:01.367Z,2.03
2018-07-17T13:42:30.469Z,2.55
2018-07-17T13:44:59.627Z,5.97
2018-07-17T13:47:28.998Z,3.75
2018-07-17T13:49:58.245Z,3.63
2018-07-17T13:52:27.452Z,3.67
2018-07-17T13:54:56.643Z,5.17
2018-07-17T13:57:25.970Z,3.00
2018-07-17T13:59:55.313Z,2.33
2018-07-17T14:02:24.418Z,3.42
2018-07-17T14:04:53.506Z,2.70
2018-07-17T14:07:22.871Z,2.83
2018-07-17T14:09:52.135Z,3.98
2018-07-17T14:12:21.304Z,3.80
2018-07-17T14:14:50.719Z,4.72
2018-07-17T14:17:19.967Z,4.12
2018-07-17T14:19:49.133Z,3.53
2018-07-17T14:22:18.450Z,3.75
2018-07-17T14:24:47.755Z,3.00
2018-07-17T14:27:16.891Z,4.80
2018-07-17T14:29:45.679Z,2.40
2018-07-17T14:32:14.844Z,4.03
2018-07-17T14:34:44.081Z,2.62
2018-07-17T14:37:13.631Z,3.20
2018-07-17T14:39:42.851Z,4.85
2018-07-17T14:42:12.371Z,4.10
2018-07-17T14:44:42.227Z,4.47
2018-07-17T14:47:11.468Z,3.62
2018-07-17T14:49:40.661Z,2.87
2018-07-17T14:52:09.973Z,5.62
2018-07-17T14:54:39.299Z,5.65
2018-07-17T14:57:08.567Z,3.70
2018-07-17T14:59:37.906Z,3.55
2018-07-17T15:02:07.675Z,3.80
2018-07-17T15:04:36.874Z,2.70
2018-07-17T15:07:06.326Z,3.85
2018-07-17T15:09:35.630Z,2.58
2018-07-17T15:12:04.964Z,2.22
2018-07-17T15:14:33.976Z,4.53
2018-07-17T15:17:03.016Z,4.10
2018-07-17T15:19:32.396Z,2.35
2018-07-17T15:22:01.498Z,3.00
2018-07-17T15:24:30.769Z,3.62
2018-07-17T15:26:59.863Z,5.47
2018-07-17T15:29:29.740Z,3.50
2018-07-17T15:31:59.248Z,6.45
2018-07-17T15:34:28.408Z,2.80
2018-07-17T15:36:57.485Z,1.95
2018-07-17T15:39:26.629Z,3.40
2018-07-17T15:41:55.877Z,4.40
2018-07-17T15:44:25.678Z,2.25
2018-07-17T15:46:55.729Z,3.17
2018-07-17T15:49:24.795Z,3.67
2018-07-17T15:51:54.108Z,2.62
2018-07-17T15:54:23.600Z,3.37
2018-07-17T15:56:53.807Z,2.67
2018-07-17T15:59:23.058Z,4.73
2018-07-17T16:01:52.185Z,3.45
2018-07-17T16:04:21.743Z,4.22
2018-07-17T16:06:51.163Z,4.50
2018-07-17T16:09:20.920Z,5.83
2018-07-17T16:11:50.060Z,5.87
2018-07-17T16:14:20.376Z,4.35
2018-07-17T16:16:50.305Z,7.17
2018-07-17T16:19:19.476Z,7.00
2018-07-17T16:21:48.687Z,5.20
2018-07-17T16:24:18.054Z,4.92
2018-07-17T16:26:47.250Z,5.97
2018-07-17T16:29:16.462Z,3.08
2018-07-17T16:31:45.776Z,3.67
2018-07-17T16:34:14.962Z,6.58
2018-07-17T16:36:44.163Z,5.62
2018-07-17T16:39:13.552Z,3.80
2018-07-17T16:41:42.710Z,4.22
2018-07-17T16:44:12.000Z,5.83
2018-07-17T16:46:41.589Z,3.10
2018-07-17T16:49:10.793Z,3.80
2018-07-17T16:51:41.477Z,3.27
2018-07-17T16:54:10.849Z,2.45
2018-07-17T16:56:40.023Z,8.15
2018-07-17T16:59:09.967Z,4.60
2018-07-17T17:01:39.135Z,3.00
2018-07-17T17:04:08.382Z,6.97
2018-07-17T17:06:38.460Z,2.65
2018-07-17T17:09:11.146Z,2.90
2018-07-17T17:11:40.424Z,4.25
2018-07-17T17:14:09.528Z,3.33
2018-07-17T17:16:39.468Z,8.30
2018-07-17T17:19:08.635Z,4.15
2018-07-17T17:21:38.721Z,3.42
2018-07-17T17:24:08.203Z,3.00
2018-07-17T17:26:37.274Z,4.67
2018-07-17T17:29:06.479Z,1.98
2018-07-17T17:31:35.375Z,3.90
2018-07-17T17:34:04.440Z,3.12
2018-07-17T17:36:33.689Z,2.50
2018-07-17T17:39:02.414Z,5.25
2018-07-17T17:41:31.236Z,4.08
2018-07-17T17:44:00.630Z,2.90
2018-07-17T17:46:29.946Z,4.28
2018-07-17T17:48:59.128Z,2.67
2018-07-17T17:51:27.881Z,2.22
2018-07-17T17:53:57.238Z,4.75
2018-07-17T17:56:27.275Z,3.67
2018-07-17T17:58:57.228Z,4.00
2018-07-17T18:01:26.768Z,2.37
2018-07-17T18:03:55.949Z,2.27
2018-07-17T18:06:25.176Z,4.25
2018-07-17T18:08:55.078Z,3.72
2018-07-17T18:11:24.289Z,2.85
2018-07-17T18:13:53.478Z,2.13
2018-07-17T18:16:23.575Z,2.97
2018-07-17T18:18:53.091Z,5.37
2018-07-17T18:21:22.275Z,3.80
2018-07-17T18:23:51.481Z,3.27
2018-07-17T18:26:20.580Z,3.27
2018-07-17T18:28:50.480Z,3.63
2018-07-17T18:31:20.149Z,3.03
2018-07-17T18:33:49.469Z,3.77
2018-07-17T18:36:18.793Z,3.80
2018-07-17T18:38:47.948Z,3.30
2018-07-17T18:41:17.206Z,3.73
2018-07-17T18:43:46.463Z,4.13
2018-07-17T18:46:15.666Z,4.03
2018-07-17T18:48:48.811Z,3.90
2018-07-17T18:51:18.300Z,2.93
2018-07-17T18:53:47.993Z,4.50
2018-07-17T18:56:17.426Z,3.53
2018-07-17T18:58:47.392Z,3.00
2018-07-17T19:01:16.597Z,5.30
2018-07-17T19:03:45.924Z,3.60
2018-07-17T19:06:15.012Z,3.77
2018-07-17T19:08:44.142Z,3.03
2018-07-17T19:11:14.385Z,4.83
2018-07-17T19:13:44.016Z,3.67
2018-07-17T19:16:13.241Z,2.57
2018-07-17T19:18:42.641Z,8.23
2018-07-17T19:21:11.801Z,2.93
2018-07-17T19:23:41.132Z,2.13
2018-07-17T19:26:11.155Z,4.43
2018-07-17T19:28:40.359Z,2.60
2018-07-17T19:31:10.130Z,2.23
2018-07-17T19:33:39.349Z,2.40
2018-07-17T19:36:08.754Z,5.87
2018-07-17T19:38:37.937Z,2.27
2018-07-17T19:41:07.416Z,4.87
2018-07-17T19:43:36.726Z,2.30
2018-07-17T19:46:06.109Z,2.87
2018-07-17T19:48:35.400Z,3.90
2018-07-17T19:51:04.199Z,3.17
2018-07-17T19:53:33.373Z,3.63
2018-07-17T19:56:02.483Z,4.83
2018-07-17T19:58:31.703Z,4.30
2018-07-17T20:01:01.255Z,5.00
2018-07-17T20:03:30.366Z,5.50
2018-07-17T20:05:59.546Z,5.93
2018-07-17T20:08:29.061Z,4.57
2018-07-17T20:10:58.308Z,3.40
2018-07-17T20:13:27.870Z,3.50
2018-07-17T20:15:57.120Z,4.50
2018-07-17T20:18:26.238Z,3.83
2018-07-17T20:20:55.559Z,3.97
2018-07-17T20:23:24.827Z,2.47
2018-07-17T20:25:54.187Z,5.93
2018-07-17T20:28:23.354Z,3.93
2018-07-17T20:30:52.525Z,2.77
2018-07-17T20:33:21.846Z,2.10
2018-07-17T20:35:50.980Z,2.80
2018-07-17T20:38:20.156Z,4.57
2018-07-17T20:40:49.406Z,2.73
2018-07-17T20:43:18.754Z,5.47
2018-07-17T20:45:48.041Z,4.27
2018-07-17T20:48:17.161Z,2.50
2018-07-17T20:50:45.924Z,3.23
2018-07-17T20:53:15.135Z,3.47
2018-07-17T20:55:44.714Z,3.50
2018-07-17T20:58:13.908Z,2.03
2018-07-17T21:00:43.215Z,3.33
2018-07-17T21:03:12.348Z,2.40
2018-07-17T21:05:41.541Z,4.47
2018-07-17T21:08:10.289Z,4.63
2018-07-17T21:10:39.294Z,5.83
2018-07-17T21:13:08.601Z,4.57
2018-07-17T21:15:37.928Z,3.87
2018-07-17T21:18:07.768Z,6.57
2018-07-17T21:20:37.513Z,3.67
2018-07-17T21:23:06.818Z,3.23
2018-07-17T21:25:36.010Z,2.97
2018-07-17T21:28:05.482Z,4.03
2018-07-17T21:30:35.166Z,4.47
2018-07-17T21:33:04.288Z,3.20
2018-07-17T21:35:34.307Z,4.37
2018-07-17T21:38:03.450Z,4.63
2018-07-17T21:40:32.681Z,6.47
2018-07-17T21:43:02.645Z,4.33
2018-07-17T21:45:31.773Z,5.77
2018-07-17T21:48:00.908Z,4.60
2018-07-17T21:50:30.173Z,4.87
2018-07-17T21:52:59.419Z,7.47
2018-07-17T21:55:29.070Z,4.60
2018-07-17T21:57:58.174Z,6.90
2018-07-17T22:00:27.684Z,6.50
2018-07-17T22:02:56.918Z,4.73
2018-07-17T22:05:26.740Z,7.13
2018-07-17T22:07:56.095Z,6.03
2018-07-17T22:10:25.513Z,5.03
2018-07-17T22:12:54.716Z,6.63
2018-07-17T22:15:24.126Z,6.63
2018-07-17T22:17:53.165Z,5.80
2018-07-17T22:20:22.591Z,5.73
2018-07-17T22:22:51.774Z,4.00
2018-07-17T22:25:21.027Z,4.47
2018-07-17T22:27:50.190Z,5.60
2018-07-17T22:30:19.456Z,6.93
2018-07-17T22:32:49.615Z,7.83
2018-07-17T22:35:18.498Z,9.37
2018-07-17T22:37:47.779Z,9.00
2018-07-17T22:40:17.010Z,5.90
2018-07-17T22:42:46.245Z,6.03
2018-07-17T22:45:15.389Z,4.27
2018-07-17T22:47:44.686Z,5.50
2018-07-17T22:50:13.991Z,6.20
2018-07-17T22:52:43.082Z,4.83
2018-07-17T22:55:12.261Z,5.87
2018-07-17T22:57:41.683Z,3.27
2018-07-17T23:00:10.874Z,4.57
2018-07-17T23:02:40.064Z,4.53
2018-07-17T23:05:09.217Z,4.57
2018-07-17T23:07:38.704Z,3.57
2018-07-17T23:10:07.898Z,3.73
2018-07-17T23:12:37.125Z,4.97
2018-07-17T23:15:06.492Z,3.50
2018-07-17T23:17:35.998Z,5.53
2018-07-17T23:20:05.550Z,7.40
2018-07-17T23:22:48.936Z,5.30
2018-07-17T23:25:18.525Z,7.73
2018-07-17T23:27:47.604Z,5.77
2018-07-17T23:30:17.152Z,6.30
2018-07-17T23:32:46.645Z,5.67
2018-07-17T23:35:16.354Z,4.30
2018-07-17T23:37:45.441Z,7.00
2018-07-17T23:40:14.958Z,5.80
2018-07-17T23:42:44.254Z,5.03
2018-07-17T23:45:14.336Z,4.33
2018-07-17T23:47:43.893Z,7.73
2018-07-17T23:50:13.294Z,7.50
2018-07-17T23:52:43.076Z,6.17
2018-07-17T23:55:13.210Z,5.30
2018-07-17T23:57:42.495Z,5.87
